sensor_id;sensor_type;location;lat;lon;timestamp;pressure;altitude;pressure_sealevel;temperature;humidity
44825;BME280;30542;47.928;2.138;2024-01-07T00:04:21;100438.16;;;20.21;44.67
44825;BME280;30542;47.928;2.138;2024-01-07T00:09:21;100433.88;;;20.20;44.64
44825;BME280;30542;47.928;2.138;2024-01-07T00:14:22;100436.25;;;20.16;44.81
44825;BME280;30542;47.928;2.138;2024-01-07T00:19:22;100437.59;;;20.14;45.22
44825;BME280;30542;47.928;2.138;2024-01-07T00:24:23;100443.72;;;20.14;44.91
44825;BME280;30542;47.928;2.138;2024-01-07T00:29:25;100440.53;;;20.12;44.86
44825;BME280;30542;47.928;2.138;2024-01-07T00:34:26;100448.25;;;20.08;44.75
44825;BME280;30542;47.928;2.138;2024-01-07T00:39:26;100449.84;;;20.04;44.66
44825;BME280;30542;47.928;2.138;2024-01-07T00:44:27;100441.75;;;19.94;44.82
44825;BME280;30542;47.928;2.138;2024-01-07T00:49:27;100460.53;;;19.99;44.49
44825;BME280;30542;47.928;2.138;2024-01-07T00:54:28;100461.03;;;19.96;44.63
44825;BME280;30542;47.928;2.138;2024-01-07T00:59:28;100466.38;;;19.91;44.52
44825;BME280;30542;47.928;2.138;2024-01-07T01:04:29;100459.38;;;19.90;44.50
44825;BME280;30542;47.928;2.138;2024-01-07T01:09:30;100465.28;;;19.87;44.69
44825;BME280;30542;47.928;2.138;2024-01-07T01:14:30;100465.22;;;19.82;44.51
44825;BME280;30542;47.928;2.138;2024-01-07T01:19:31;100458.28;;;19.81;44.42
44825;BME280;30542;47.928;2.138;2024-01-07T01:24:31;100470.53;;;19.77;44.33
44825;BME280;30542;47.928;2.138;2024-01-07T01:29:31;100469.72;;;19.71;44.22
44825;BME280;30542;47.928;2.138;2024-01-07T01:34:32;100475.06;;;19.71;44.13
44825;BME280;30542;47.928;2.138;2024-01-07T01:39:32;100477.44;;;19.68;44.38
44825;BME280;30542;47.928;2.138;2024-01-07T01:44:33;100484.91;;;19.66;44.19
44825;BME280;30542;47.928;2.138;2024-01-07T01:49:34;100493.97;;;19.65;44.13
44825;BME280;30542;47.928;2.138;2024-01-07T01:54:37;100496.13;;;19.63;44.33
44825;BME280;30542;47.928;2.138;2024-01-07T01:59:37;100486.72;;;19.60;44.02
44825;BME280;30542;47.928;2.138;2024-01-07T02:04:37;100495.00;;;19.58;44.01
44825;BME280;30542;47.928;2.138;2024-01-07T02:09:38;100500.03;;;19.55;44.11
44825;BME280;30542;47.928;2.138;2024-01-07T02:14:40;100497.88;;;19.52;43.99
44825;BME280;30542;47.928;2.138;2024-01-07T02:19:40;100499.22;;;19.49;44.04
44825;BME280;30542;47.928;2.138;2024-01-07T02:24:40;100500.50;;;19.47;44.13
44825;BME280;30542;47.928;2.138;2024-01-07T02:29:41;100506.13;;;19.45;43.88
44825;BME280;30542;47.928;2.138;2024-01-07T02:34:41;100502.09;;;19.43;44.00
44825;BME280;30542;47.928;2.138;2024-01-07T02:39:42;100514.63;;;19.42;43.82
44825;BME280;30542;47.928;2.138;2024-01-07T02:44:42;100508.72;;;19.40;43.52
44825;BME280;30542;47.928;2.138;2024-01-07T02:49:42;100512.19;;;19.41;43.69
44825;BME280;30542;47.928;2.138;2024-01-07T02:54:43;100515.41;;;19.37;43.77
44825;BME280;30542;47.928;2.138;2024-01-07T02:59:43;100522.03;;;19.35;43.74
44825;BME280;30542;47.928;2.138;2024-01-07T03:04:44;100519.03;;;19.26;43.29
44825;BME280;30542;47.928;2.138;2024-01-07T03:09:44;100530.03;;;19.30;43.71
44825;BME280;30542;47.928;2.138;2024-01-07T03:14:44;100530.53;;;19.27;43.60
44825;BME280;30542;47.928;2.138;2024-01-07T03:19:45;100518.19;;;19.21;43.39
44825;BME280;30542;47.928;2.138;2024-01-07T03:24:45;100537.19;;;19.24;43.32
44825;BME280;30542;47.928;2.138;2024-01-07T03:29:46;100525.41;;;19.20;43.25
44825;BME280;30542;47.928;2.138;2024-01-07T03:34:46;100529.91;;;19.20;43.60
44825;BME280;30542;47.928;2.138;2024-01-07T03:39:47;100531.44;;;19.10;43.28
44825;BME280;30542;47.928;2.138;2024-01-07T03:44:47;100539.50;;;19.16;43.45
44825;BME280;30542;47.928;2.138;2024-01-07T03:49:48;100544.03;;;19.15;43.52
44825;BME280;30542;47.928;2.138;2024-01-07T03:54:48;100540.78;;;19.08;43.36
44825;BME280;30542;47.928;2.138;2024-01-07T03:59:48;100546.13;;;19.08;43.24
44825;BME280;30542;47.928;2.138;2024-01-07T04:04:49;100553.91;;;19.15;43.42
44825;BME280;30542;47.928;2.138;2024-01-07T04:09:49;100556.06;;;19.18;43.26
44825;BME280;30542;47.928;2.138;2024-01-07T04:14:50;100554.47;;;19.17;43.28
44825;BME280;30542;47.928;2.138;2024-01-07T04:19:52;100565.69;;;19.19;43.60
44825;BME280;30542;47.928;2.138;2024-01-07T04:24:52;100560.94;;;19.21;43.43
44825;BME280;30542;47.928;2.138;2024-01-07T04:29:53;100554.25;;;19.23;43.54
44825;BME280;30542;47.928;2.138;2024-01-07T04:34:53;100557.22;;;19.27;43.69
44825;BME280;30542;47.928;2.138;2024-01-07T04:39:53;100560.25;;;19.35;43.92
44825;BME280;30542;47.928;2.138;2024-01-07T04:44:54;100558.97;;;19.43;43.46
44825;BME280;30542;47.928;2.138;2024-01-07T04:49:55;100553.16;;;19.51;43.47
44825;BME280;30542;47.928;2.138;2024-01-07T04:54:56;100548.16;;;19.60;43.31
44825;BME280;30542;47.928;2.138;2024-01-07T04:59:56;100565.66;;;19.73;43.20
44825;BME280;30542;47.928;2.138;2024-01-07T05:04:57;100562.50;;;19.81;42.99
44825;BME280;30542;47.928;2.138;2024-01-07T05:09:58;100569.00;;;19.90;42.66
44825;BME280;30542;47.928;2.138;2024-01-07T05:14:58;100563.41;;;19.92;42.82
44825;BME280;30542;47.928;2.138;2024-01-07T05:19:58;100577.38;;;20.04;42.54
44825;BME280;30542;47.928;2.138;2024-01-07T05:25:00;100575.53;;;20.09;42.42
44825;BME280;30542;47.928;2.138;2024-01-07T05:30:00;100584.16;;;20.17;42.26
44825;BME280;30542;47.928;2.138;2024-01-07T05:35:01;100579.91;;;20.21;42.17
44825;BME280;30542;47.928;2.138;2024-01-07T05:40:01;100592.22;;;20.27;41.90
44825;BME280;30542;47.928;2.138;2024-01-07T05:45:02;100590.63;;;20.31;41.78
44825;BME280;30542;47.928;2.138;2024-01-07T05:50:03;100586.66;;;20.33;41.71
44825;BME280;30542;47.928;2.138;2024-01-07T05:55:05;100592.81;;;20.39;41.48
44825;BME280;30542;47.928;2.138;2024-01-07T06:00:06;100588.84;;;20.42;41.66
44825;BME280;30542;47.928;2.138;2024-01-07T06:05:06;100600.63;;;20.46;41.47
44825;BME280;30542;47.928;2.138;2024-01-07T06:10:07;100607.09;;;20.50;41.43
44825;BME280;30542;47.928;2.138;2024-01-07T06:15:08;100603.91;;;20.53;41.17
44825;BME280;30542;47.928;2.138;2024-01-07T06:20:09;100613.84;;;20.57;41.10
44825;BME280;30542;47.928;2.138;2024-01-07T06:25:10;100618.13;;;20.58;41.09
44825;BME280;30542;47.928;2.138;2024-01-07T06:30:11;100608.22;;;20.59;41.20
44825;BME280;30542;47.928;2.138;2024-01-07T06:35:11;100619.75;;;20.65;41.00
44825;BME280;30542;47.928;2.138;2024-01-07T06:40:12;100612.28;;;20.67;40.88
44825;BME280;30542;47.928;2.138;2024-01-07T06:45:12;100629.94;;;20.68;40.94
44825;BME280;30542;47.928;2.138;2024-01-07T06:50:13;100631.53;;;20.69;40.90
44825;BME280;30542;47.928;2.138;2024-01-07T06:55:13;100640.13;;;20.71;40.88
44825;BME280;30542;47.928;2.138;2024-01-07T07:00:14;100639.06;;;20.72;40.71
44825;BME280;30542;47.928;2.138;2024-01-07T07:05:15;100636.38;;;20.72;40.80
44825;BME280;30542;47.928;2.138;2024-01-07T07:10:15;100646.56;;;20.75;40.74
44825;BME280;30542;47.928;2.138;2024-01-07T07:15:16;100648.72;;;20.78;40.71
44825;BME280;30542;47.928;2.138;2024-01-07T07:20:17;100645.22;;;20.77;40.57
44825;BME280;30542;47.928;2.138;2024-01-07T07:25:18;100647.09;;;20.77;40.41
44825;BME280;30542;47.928;2.138;2024-01-07T07:30:18;100648.47;;;20.79;40.25
44825;BME280;30542;47.928;2.138;2024-01-07T07:35:18;100653.81;;;20.79;40.34
44825;BME280;30542;47.928;2.138;2024-01-07T07:40:19;100666.13;;;20.80;40.36
44825;BME280;30542;47.928;2.138;2024-01-07T07:45:19;100663.44;;;20.80;40.40
44825;BME280;30542;47.928;2.138;2024-01-07T07:50:20;100653.31;;;20.82;40.59
44825;BME280;30542;47.928;2.138;2024-01-07T07:55:21;100660.78;;;20.80;40.50
44825;BME280;30542;47.928;2.138;2024-01-07T08:00:22;100670.19;;;20.88;40.62
44825;BME280;30542;47.928;2.138;2024-01-07T08:05:22;100676.91;;;20.91;40.70
44825;BME280;30542;47.928;2.138;2024-01-07T08:10:23;100680.63;;;20.90;40.49
44825;BME280;30542;47.928;2.138;2024-01-07T08:15:23;100682.78;;;20.93;40.53
44825;BME280;30542;47.928;2.138;2024-01-07T08:20:23;100688.69;;;20.95;40.42
44825;BME280;30542;47.928;2.138;2024-01-07T08:25:24;100683.88;;;20.97;40.39
44825;BME280;30542;47.928;2.138;2024-01-07T08:30:24;100680.94;;;20.98;40.33
44825;BME280;30542;47.928;2.138;2024-01-07T08:35:25;100693.81;;;21.01;40.35
44825;BME280;30542;47.928;2.138;2024-01-07T08:40:25;100697.28;;;21.02;40.27
44825;BME280;30542;47.928;2.138;2024-01-07T08:45:25;100701.31;;;21.04;40.40
44825;BME280;30542;47.928;2.138;2024-01-07T08:50:26;100716.31;;;21.05;40.57
44825;BME280;30542;47.928;2.138;2024-01-07T08:55:26;100716.31;;;21.05;40.54
44825;BME280;30542;47.928;2.138;2024-01-07T09:00:27;100712.56;;;21.06;40.48
44825;BME280;30542;47.928;2.138;2024-01-07T09:05:31;100710.16;;;21.05;41.03
44825;BME280;30542;47.928;2.138;2024-01-07T09:10:31;100724.66;;;21.14;41.00
44825;BME280;30542;47.928;2.138;2024-01-07T09:15:32;100721.44;;;21.12;40.50
44825;BME280;30542;47.928;2.138;2024-01-07T09:20:32;100728.13;;;21.15;40.31
44825;BME280;30542;47.928;2.138;2024-01-07T09:25:33;100733.97;;;21.59;39.85
44825;BME280;30542;47.928;2.138;2024-01-07T09:30:34;100735.31;;;21.72;39.72
44825;BME280;30542;47.928;2.138;2024-01-07T09:35:34;100723.81;;;21.76;40.29
44825;BME280;30542;47.928;2.138;2024-01-07T09:40:34;100724.63;;;21.82;40.81
44825;BME280;30542;47.928;2.138;2024-01-07T09:45:38;100720.88;;;21.83;41.02
44825;BME280;30542;47.928;2.138;2024-01-07T09:50:42;100732.41;;;21.83;41.12
44825;BME280;30542;47.928;2.138;2024-01-07T10:01:08;100729.97;;;21.77;41.53
44825;BME280;30542;47.928;2.138;2024-01-07T10:06:10;100733.44;;;21.67;41.27
44825;BME280;30542;47.928;2.138;2024-01-07T10:11:13;100739.59;;;21.68;41.32
44825;BME280;30542;47.928;2.138;2024-01-07T10:16:14;100746.31;;;21.65;41.84
44825;BME280;30542;47.928;2.138;2024-01-07T10:21:14;100755.16;;;21.66;42.17
44825;BME280;30542;47.928;2.138;2024-01-07T10:26:15;100756.22;;;21.65;42.29
44825;BME280;30542;47.928;2.138;2024-01-07T10:31:16;100752.19;;;21.62;42.87
44825;BME280;30542;47.928;2.138;2024-01-07T10:36:16;100746.84;;;21.62;42.97
44825;BME280;30542;47.928;2.138;2024-01-07T10:41:18;100746.28;;;21.60;43.18
44825;BME280;30542;47.928;2.138;2024-01-07T10:46:19;100743.06;;;21.58;43.01
44825;BME280;30542;47.928;2.138;2024-01-07T10:51:21;100740.13;;;21.54;43.05
44825;BME280;30542;47.928;2.138;2024-01-07T10:56:23;100739.84;;;21.51;43.09
44825;BME280;30542;47.928;2.138;2024-01-07T11:01:24;100732.59;;;21.46;43.03
44825;BME280;30542;47.928;2.138;2024-01-07T11:06:36;100723.97;;;21.34;43.02
44825;BME280;30542;47.928;2.138;2024-01-07T11:11:40;100738.72;;;21.37;43.03
44825;BME280;30542;47.928;2.138;2024-01-07T11:16:43;100725.81;;;21.28;43.11
44825;BME280;30542;47.928;2.138;2024-01-07T11:21:44;100718.00;;;21.27;43.22
44825;BME280;30542;47.928;2.138;2024-01-07T11:26:44;100722.03;;;21.29;43.21
44825;BME280;30542;47.928;2.138;2024-01-07T11:31:47;100729.59;;;21.32;43.14
44825;BME280;30542;47.928;2.138;2024-01-07T11:36:47;100723.69;;;21.35;43.23
44825;BME280;30542;47.928;2.138;2024-01-07T11:41:48;100717.28;;;21.37;43.13
44825;BME280;30542;47.928;2.138;2024-01-07T11:46:50;100722.66;;;21.37;42.87
44825;BME280;30542;47.928;2.138;2024-01-07T11:51:51;100719.69;;;21.38;42.82
44825;BME280;30542;47.928;2.138;2024-01-07T11:56:51;100714.91;;;21.40;42.83
44825;BME280;30542;47.928;2.138;2024-01-07T12:01:52;100715.94;;;21.39;42.59
44825;BME280;30542;47.928;2.138;2024-01-07T12:06:52;100706.00;;;21.34;42.26
44825;BME280;30542;47.928;2.138;2024-01-07T12:11:53;100700.94;;;21.33;42.13
44825;BME280;30542;47.928;2.138;2024-01-07T12:16:55;100695.25;;;21.29;41.87
44825;BME280;30542;47.928;2.138;2024-01-07T12:22:03;100704.09;;;21.30;41.62
44825;BME280;30542;47.928;2.138;2024-01-07T12:27:04;100705.16;;;21.29;41.61
44825;BME280;30542;47.928;2.138;2024-01-07T12:32:05;100705.97;;;21.29;41.34
44825;BME280;30542;47.928;2.138;2024-01-07T12:37:06;100700.63;;;21.29;41.14
44825;BME280;30542;47.928;2.138;2024-01-07T12:42:06;100697.94;;;21.29;40.90
44825;BME280;30542;47.928;2.138;2024-01-07T12:47:07;100703.00;;;21.26;40.75
44825;BME280;30542;47.928;2.138;2024-01-07T12:52:08;100703.00;;;21.26;40.38
44825;BME280;30542;47.928;2.138;2024-01-07T12:57:09;100711.03;;;21.26;40.19
44825;BME280;30542;47.928;2.138;2024-01-07T13:02:09;100695.75;;;21.21;40.08
44825;BME280;30542;47.928;2.138;2024-01-07T13:07:10;100705.97;;;21.24;40.01
44825;BME280;30542;47.928;2.138;2024-01-07T13:12:11;100704.59;;;21.22;39.66
44825;BME280;30542;47.928;2.138;2024-01-07T13:17:11;100707.00;;;21.18;39.54
44825;BME280;30542;47.928;2.138;2024-01-07T13:22:11;100717.47;;;21.20;39.25
44825;BME280;30542;47.928;2.138;2024-01-07T13:27:12;100712.63;;;21.17;39.29
44825;BME280;30542;47.928;2.138;2024-01-07T13:32:13;100709.16;;;21.16;38.95
44825;BME280;30542;47.928;2.138;2024-01-07T13:37:19;100712.91;;;21.15;38.82
44825;BME280;30542;47.928;2.138;2024-01-07T13:42:20;100718.78;;;21.12;38.72
44825;BME280;30542;47.928;2.138;2024-01-07T13:47:21;100715.00;;;21.13;38.56
44825;BME280;30542;47.928;2.138;2024-01-07T13:52:21;100730.28;;;21.13;38.57
44825;BME280;30542;47.928;2.138;2024-01-07T13:57:22;100726.00;;;21.12;38.38
44825;BME280;30542;47.928;2.138;2024-01-07T14:02:22;100731.38;;;21.12;38.33
44825;BME280;30542;47.928;2.138;2024-01-07T14:07:22;100734.84;;;21.12;38.27
44825;BME280;30542;47.928;2.138;2024-01-07T14:12:24;100740.44;;;21.10;38.04
44825;BME280;30542;47.928;2.138;2024-01-07T14:17:25;100740.44;;;21.10;38.10
44825;BME280;30542;47.928;2.138;2024-01-07T14:22:25;100751.16;;;21.10;37.81
44825;BME280;30542;47.928;2.138;2024-01-07T14:27:26;100750.34;;;21.10;37.95
44825;BME280;30542;47.928;2.138;2024-01-07T14:32:27;100760.25;;;21.09;37.82
44825;BME280;30542;47.928;2.138;2024-01-07T14:37:27;100758.66;;;21.08;37.65
44825;BME280;30542;47.928;2.138;2024-01-07T14:42:28;100758.09;;;21.06;37.50
44825;BME280;30542;47.928;2.138;2024-01-07T14:47:28;100761.59;;;21.07;37.24
44825;BME280;30542;47.928;2.138;2024-01-07T14:52:28;100764.53;;;21.05;37.27
44825;BME280;30542;47.928;2.138;2024-01-07T14:57:29;100772.56;;;21.05;37.27
44825;BME280;30542;47.928;2.138;2024-01-07T15:02:29;100776.03;;;21.06;37.36
44825;BME280;30542;47.928;2.138;2024-01-07T15:07:30;100779.78;;;21.05;37.25
44825;BME280;30542;47.928;2.138;2024-01-07T15:12:30;100779.28;;;21.08;36.99
44825;BME280;30542;47.928;2.138;2024-01-07T15:17:35;100786.25;;;21.09;37.13
44825;BME280;30542;47.928;2.138;2024-01-07T15:22:36;100779.50;;;21.01;37.06
44825;BME280;30542;47.928;2.138;2024-01-07T15:27:36;100789.69;;;21.04;37.02
44825;BME280;30542;47.928;2.138;2024-01-07T15:32:37;100802.28;;;21.04;36.90
44825;BME280;30542;47.928;2.138;2024-01-07T15:37:37;100810.56;;;21.02;36.83
44825;BME280;30542;47.928;2.138;2024-01-07T15:42:38;100815.13;;;21.02;36.70
44825;BME280;30542;47.928;2.138;2024-01-07T15:47:38;100812.44;;;21.02;36.62
44825;BME280;30542;47.928;2.138;2024-01-07T15:52:39;100823.16;;;21.02;36.68
44825;BME280;30542;47.928;2.138;2024-01-07T15:57:49;100832.81;;;21.03;36.37
44825;BME280;30542;47.928;2.138;2024-01-07T16:02:49;100833.06;;;21.01;36.61
44825;BME280;30542;47.928;2.138;2024-01-07T16:07:51;100828.78;;;21.00;36.58
44825;BME280;30542;47.928;2.138;2024-01-07T16:12:52;100831.19;;;21.02;36.43
44825;BME280;30542;47.928;2.138;2024-01-07T16:17:52;100784.66;;;20.71;36.20
44825;BME280;30542;47.928;2.138;2024-01-07T16:22:53;100830.66;;;21.00;36.70
44825;BME280;30542;47.928;2.138;2024-01-07T16:27:54;100833.06;;;21.01;36.78
44825;BME280;30542;47.928;2.138;2024-01-07T16:32:55;100834.94;;;21.01;36.53
44825;BME280;30542;47.928;2.138;2024-01-07T16:37:55;100840.28;;;21.01;36.55
44825;BME280;30542;47.928;2.138;2024-01-07T16:42:55;100843.78;;;21.01;36.55
44825;BME280;30542;47.928;2.138;2024-01-07T16:47:56;100844.25;;;20.93;36.50
44825;BME280;30542;47.928;2.138;2024-01-07T16:52:56;100862.78;;;21.00;36.31
44825;BME280;30542;47.928;2.138;2024-01-07T16:57:57;100873.00;;;21.03;36.46
44825;BME280;30542;47.928;2.138;2024-01-07T17:02:57;100871.34;;;21.02;36.35
44825;BME280;30542;47.928;2.138;2024-01-07T17:07:58;100871.63;;;21.00;36.49
44825;BME280;30542;47.928;2.138;2024-01-07T17:12:58;100870.03;;;20.99;36.49
44825;BME280;30542;47.928;2.138;2024-01-07T17:17:58;100873.22;;;21.01;36.29
44825;BME280;30542;47.928;2.138;2024-01-07T17:22:59;100864.13;;;21.02;36.32
44825;BME280;30542;47.928;2.138;2024-01-07T17:27:59;100875.91;;;21.01;36.05
44825;BME280;30542;47.928;2.138;2024-01-07T17:33:01;100881.28;;;21.01;36.37
44825;BME280;30542;47.928;2.138;2024-01-07T17:38:02;100879.16;;;21.03;36.43
44825;BME280;30542;47.928;2.138;2024-01-07T17:43:02;100887.72;;;21.05;36.53
44825;BME280;30542;47.928;2.138;2024-01-07T17:48:04;100888.53;;;21.06;36.49
44825;BME280;30542;47.928;2.138;2024-01-07T17:53:05;100894.44;;;21.03;36.64
44825;BME280;30542;47.928;2.138;2024-01-07T17:58:08;100893.31;;;20.99;36.49
44825;BME280;30542;47.928;2.138;2024-01-07T18:03:09;100865.84;;;20.81;36.50
44825;BME280;30542;47.928;2.138;2024-01-07T18:08:09;100902.19;;;21.04;36.55
44825;BME280;30542;47.928;2.138;2024-01-07T18:13:10;100904.59;;;21.06;36.44
44825;BME280;30542;47.928;2.138;2024-01-07T18:18:14;100913.44;;;21.06;36.53
44825;BME280;30542;47.928;2.138;2024-01-07T18:23:14;100915.31;;;21.06;36.45
44825;BME280;30542;47.928;2.138;2024-01-07T18:28:15;100907.25;;;21.01;36.61
44825;BME280;30542;47.928;2.138;2024-01-07T18:33:16;100920.44;;;21.07;36.68
44825;BME280;30542;47.928;2.138;2024-01-07T18:38:16;100921.47;;;21.06;36.58
44825;BME280;30542;47.928;2.138;2024-01-07T18:43:17;100922.31;;;21.07;36.79
44825;BME280;30542;47.928;2.138;2024-01-07T18:48:17;100917.75;;;21.07;36.55
44825;BME280;30542;47.928;2.138;2024-01-07T18:53:18;100910.22;;;21.04;36.31
44825;BME280;30542;47.928;2.138;2024-01-07T18:58:18;100919.38;;;21.08;36.23
44825;BME280;30542;47.928;2.138;2024-01-07T19:03:19;100919.38;;;21.08;36.13
44825;BME280;30542;47.928;2.138;2024-01-07T19:08:19;100917.50;;;21.09;36.18
44825;BME280;30542;47.928;2.138;2024-01-07T19:13:19;100929.50;;;21.06;36.01
44825;BME280;30542;47.928;2.138;2024-01-07T19:18:20;100932.50;;;21.10;35.94
44825;BME280;30542;47.928;2.138;2024-01-07T19:23:20;100937.84;;;21.10;35.89
44825;BME280;30542;47.928;2.138;2024-01-07T19:28:21;100934.38;;;21.09;35.94
44825;BME280;30542;47.928;2.138;2024-01-07T19:33:21;100937.59;;;21.12;35.93
44825;BME280;30542;47.928;2.138;2024-01-07T19:38:22;100939.75;;;21.15;35.81
44825;BME280;30542;47.928;2.138;2024-01-07T19:43:22;100942.97;;;21.12;36.05
44825;BME280;30542;47.928;2.138;2024-01-07T19:48:22;100938.41;;;21.12;35.90
44825;BME280;30542;47.928;2.138;2024-01-07T19:53:23;100942.16;;;21.11;35.97
44825;BME280;30542;47.928;2.138;2024-01-07T19:58:23;100950.44;;;21.09;36.04
44825;BME280;30542;47.928;2.138;2024-01-07T20:03:24;100952.00;;;21.05;36.08
44825;BME280;30542;47.928;2.138;2024-01-07T20:08:25;100955.72;;;20.99;36.13
44825;BME280;30542;47.928;2.138;2024-01-07T20:13:25;100957.78;;;20.92;36.14
44825;BME280;30542;47.928;2.138;2024-01-07T20:18:26;100956.66;;;20.83;36.24
44825;BME280;30542;47.928;2.138;2024-01-07T20:23:27;100965.16;;;20.80;36.44
44825;BME280;30542;47.928;2.138;2024-01-07T20:28:27;100967.25;;;20.73;36.26
44825;BME280;30542;47.928;2.138;2024-01-07T20:33:28;100962.91;;;20.67;35.92
44825;BME280;30542;47.928;2.138;2024-01-07T20:38:28;100960.41;;;20.60;36.27
44825;BME280;30542;47.928;2.138;2024-01-07T20:43:28;100962.41;;;20.48;36.38
44825;BME280;30542;47.928;2.138;2024-01-07T20:48:29;100974.50;;;20.50;36.34
44825;BME280;30542;47.928;2.138;2024-01-07T20:53:30;100976.78;;;20.42;36.29
44825;BME280;30542;47.928;2.138;2024-01-07T20:58:31;100976.22;;;20.40;36.29
44825;BME280;30542;47.928;2.138;2024-01-07T21:03:31;100981.53;;;20.34;36.48
44825;BME280;30542;47.928;2.138;2024-01-07T21:08:32;100981.47;;;20.29;36.43
44825;BME280;30542;47.928;2.138;2024-01-07T21:13:33;100981.97;;;20.26;36.25
44825;BME280;30542;47.928;2.138;2024-01-07T21:18:34;100985.38;;;20.22;36.46
44825;BME280;30542;47.928;2.138;2024-01-07T21:23:35;100972.44;;;20.14;36.25
44825;BME280;30542;47.928;2.138;2024-01-07T21:28:35;100994.91;;;20.13;36.51
44825;BME280;30542;47.928;2.138;2024-01-07T21:33:36;100987.63;;;20.08;36.46
44825;BME280;30542;47.928;2.138;2024-01-07T21:38:38;100995.34;;;20.04;36.61
44825;BME280;30542;47.928;2.138;2024-01-07T21:43:39;100989.66;;;20.01;36.75
44825;BME280;30542;47.928;2.138;2024-01-07T21:48:40;100993.88;;;19.97;36.44
44825;BME280;30542;47.928;2.138;2024-01-07T21:53:41;101002.16;;;19.95;36.76
44825;BME280;30542;47.928;2.138;2024-01-07T21:58:41;100991.16;;;19.92;37.10
44825;BME280;30542;47.928;2.138;2024-01-07T22:03:42;100995.13;;;19.89;37.20
44825;BME280;30542;47.928;2.138;2024-01-07T22:08:42;101002.81;;;19.85;37.20
44825;BME280;30542;47.928;2.138;2024-01-07T22:13:43;101006.81;;;19.83;37.26
44825;BME280;30542;47.928;2.138;2024-01-07T22:18:44;101002.19;;;19.78;37.11
44825;BME280;30542;47.928;2.138;2024-01-07T22:23:45;101002.69;;;19.75;37.32
44825;BME280;30542;47.928;2.138;2024-01-07T22:28:47;101004.22;;;19.71;37.25
44825;BME280;30542;47.928;2.138;2024-01-07T22:33:49;101004.16;;;19.66;37.45
44825;BME280;30542;47.928;2.138;2024-01-07T22:38:49;101011.84;;;19.63;37.29
44825;BME280;30542;47.928;2.138;2024-01-07T22:43:49;101010.44;;;19.60;37.08
44825;BME280;30542;47.928;2.138;2024-01-07T22:48:50;101008.50;;;19.55;37.30
44825;BME280;30542;47.928;2.138;2024-01-07T22:53:50;101011.91;;;19.51;37.17
44825;BME280;30542;47.928;2.138;2024-01-07T22:58:51;101006.47;;;19.46;37.05
44825;BME280;30542;47.928;2.138;2024-01-07T23:03:51;101008.34;;;19.45;37.45
44825;BME280;30542;47.928;2.138;2024-01-07T23:08:52;101020.06;;;19.44;37.46
44825;BME280;30542;47.928;2.138;2024-01-07T23:13:53;101016.38;;;19.45;37.22
44825;BME280;30542;47.928;2.138;2024-01-07T23:18:53;101019.50;;;19.42;37.23
44825;BME280;30542;47.928;2.138;2024-01-07T23:23:54;101024.84;;;19.42;37.08
44825;BME280;30542;47.928;2.138;2024-01-07T23:28:54;101022.66;;;19.39;37.15
44825;BME280;30542;47.928;2.138;2024-01-07T23:33:54;101021.53;;;19.35;37.51
44825;BME280;30542;47.928;2.138;2024-01-07T23:38:55;101008.56;;;19.27;37.59
44825;BME280;30542;47.928;2.138;2024-01-07T23:43:56;101017.66;;;19.26;37.72
44825;BME280;30542;47.928;2.138;2024-01-07T23:48:56;101022.19;;;19.25;37.64
44825;BME280;30542;47.928;2.138;2024-01-07T23:53:56;101001.69;;;19.14;37.65
44825;BME280;30542;47.928;2.138;2024-01-07T23:58:57;101019.66;;;19.19;37.78
